CFG5DN EDDF-LHBP
Flight info
| Callsign | CFG5DN |
|---|---|
| Flight time | 1h 17m |
| Altitude | 31000 |
| Route | SULUS Z650 VEMUT DCT PEPIK DCT NIT M748 ARFOX |
| Aircraft | A319/M-SDE3FGHIRWY/LB1 |
Departure
| Time | 2026-05-08 06:03 |
|---|---|
| Airport | Frankfurt Main Airport (EDDF) |
Arrival
| Time | 2026-05-08 07:20 |
|---|---|
| Airport | Budapest Liszt Ferenc International Airport (LHBP) |
| Time | Latitude | Longitude | Altitude | Speed | Heading |
|---|---|---|---|---|---|
| 2026-05-08 05:37 | 50.03911 | 8.54127 | 316 ft | 0 kts | 250° |
| 2026-05-08 05:56 | 50.03915 | 8.54145 | 354 ft | 4 kts | 250° |
| 2026-05-08 05:56 | 50.03925 | 8.54184 | 355 ft | 4 kts | 250° |
| 2026-05-08 05:56 | 50.03932 | 8.54216 | 355 ft | 4 kts | 238° |
| 2026-05-08 05:56 | 50.03951 | 8.54241 | 353 ft | 4 kts | 186° |
| 2026-05-08 05:57 | 50.03968 | 8.54240 | 353 ft | 1 kts | 160° |
| 2026-05-08 05:57 | 50.03948 | 8.54251 | 352 ft | 4 kts | 160° |
| 2026-05-08 05:57 | 50.03928 | 8.54263 | 354 ft | 0 kts | 160° |
| 2026-05-08 05:59 | 50.03911 | 8.54272 | 347 ft | 7 kts | 159° |
| 2026-05-08 06:00 | 50.03839 | 8.54299 | 346 ft | 13 kts | 194° |
| 2026-05-08 06:00 | 50.03790 | 8.54181 | 352 ft | 15 kts | 250° |
| 2026-05-08 06:00 | 50.03756 | 8.54039 | 347 ft | 14 kts | 250° |
| 2026-05-08 06:00 | 50.03718 | 8.53880 | 351 ft | 18 kts | 249° |
| 2026-05-08 06:01 | 50.03670 | 8.53682 | 344 ft | 20 kts | 249° |
| 2026-05-08 06:01 | 50.03617 | 8.53474 | 338 ft | 21 kts | 249° |
| 2026-05-08 06:01 | 50.03566 | 8.53258 | 339 ft | 22 kts | 250° |
| 2026-05-08 06:01 | 50.03512 | 8.53032 | 336 ft | 23 kts | 249° |
| 2026-05-08 06:02 | 50.03452 | 8.52801 | 336 ft | 23 kts | 246° |
| 2026-05-08 06:02 | 50.03400 | 8.52622 | 333 ft | 16 kts | 231° |
| 2026-05-08 06:02 | 50.03297 | 8.52594 | 334 ft | 16 kts | 180° |
| 2026-05-08 06:02 | 50.03124 | 8.52595 | 335 ft | 53 kts | 179° |
| 2026-05-08 06:03 | 50.02493 | 8.52603 | 335 ft | 125 kts | 179° |
| 2026-05-08 06:03 | 50.01442 | 8.52622 | 418 ft | 172 kts | 178° |
| 2026-05-08 06:03 | 50.00230 | 8.52653 | 1059 ft | 176 kts | 178° |
| 2026-05-08 06:03 | 49.98989 | 8.52691 | 1749 ft | 183 kts | 178° |
| 2026-05-08 06:04 | 49.97666 | 8.52802 | 2260 ft | 199 kts | 168° |
| 2026-05-08 06:04 | 49.96387 | 8.53811 | 2641 ft | 219 kts | 137° |
| 2026-05-08 06:04 | 49.95500 | 8.55808 | 3308 ft | 229 kts | 117° |
| 2026-05-08 06:04 | 49.94736 | 8.57995 | 4254 ft | 231 kts | 118° |
| 2026-05-08 06:05 | 49.94132 | 8.60327 | 5123 ft | 237 kts | 102° |
| 2026-05-08 06:05 | 49.93951 | 8.62998 | 5605 ft | 261 kts | 93° |
| 2026-05-08 06:05 | 49.93675 | 8.65847 | 6309 ft | 274 kts | 112° |
| 2026-05-08 06:05 | 49.92627 | 8.68344 | 7158 ft | 279 kts | 128° |
| 2026-05-08 06:06 | 49.91589 | 8.70910 | 8056 ft | 283 kts | 120° |
| 2026-05-08 06:06 | 49.90629 | 8.73601 | 8974 ft | 287 kts | 119° |
| 2026-05-08 06:06 | 49.89672 | 8.76349 | 9853 ft | 292 kts | 119° |
| 2026-05-08 06:06 | 49.88697 | 8.79158 | 10491 ft | 305 kts | 119° |
| 2026-05-08 06:07 | 49.87649 | 8.82165 | 10779 ft | 329 kts | 119° |
| 2026-05-08 06:07 | 49.86534 | 8.85361 | 11286 ft | 342 kts | 119° |
| 2026-05-08 06:07 | 49.85390 | 8.88626 | 12024 ft | 347 kts | 119° |
| 2026-05-08 06:07 | 49.84239 | 8.91892 | 12801 ft | 351 kts | 119° |
| 2026-05-08 06:08 | 49.83059 | 8.95228 | 13572 ft | 355 kts | 119° |
| 2026-05-08 06:08 | 49.81863 | 8.98603 | 14299 ft | 359 kts | 119° |
| 2026-05-08 06:08 | 49.80653 | 9.02020 | 14954 ft | 364 kts | 120° |
| 2026-05-08 06:08 | 49.79428 | 9.05469 | 15612 ft | 368 kts | 120° |
| 2026-05-08 06:09 | 49.78187 | 9.08956 | 16265 ft | 372 kts | 120° |
| 2026-05-08 06:09 | 49.76929 | 9.12490 | 16919 ft | 377 kts | 120° |
| 2026-05-08 06:09 | 49.75656 | 9.16054 | 17553 ft | 381 kts | 120° |
| 2026-05-08 06:09 | 49.74567 | 9.19816 | 18197 ft | 387 kts | 109° |
| 2026-05-08 06:10 | 49.73851 | 9.23863 | 18767 ft | 392 kts | 104° |
| 2026-05-08 06:10 | 49.73191 | 9.27963 | 19346 ft | 395 kts | 104° |
| 2026-05-08 06:10 | 49.72520 | 9.32101 | 19940 ft | 398 kts | 104° |
| 2026-05-08 06:10 | 49.71839 | 9.36273 | 20511 ft | 402 kts | 105° |
| 2026-05-08 06:11 | 49.71159 | 9.40424 | 21077 ft | 405 kts | 105° |
| 2026-05-08 06:11 | 49.70463 | 9.44658 | 21659 ft | 409 kts | 105° |
| 2026-05-08 06:11 | 49.69760 | 9.48940 | 22224 ft | 412 kts | 105° |
| 2026-05-08 06:11 | 49.69052 | 9.53244 | 22777 ft | 416 kts | 105° |
| 2026-05-08 06:12 | 49.68336 | 9.57595 | 23300 ft | 419 kts | 105° |
| 2026-05-08 06:12 | 49.67678 | 9.61991 | 23787 ft | 423 kts | 100° |
| 2026-05-08 06:12 | 49.67440 | 9.66540 | 24217 ft | 427 kts | 90° |
| 2026-05-08 06:12 | 49.67693 | 9.71120 | 24656 ft | 430 kts | 80° |
| 2026-05-08 06:13 | 49.68389 | 9.75614 | 25092 ft | 432 kts | 74° |
| 2026-05-08 06:13 | 49.69183 | 9.80105 | 25514 ft | 435 kts | 74° |
| 2026-05-08 06:13 | 49.69983 | 9.84620 | 25936 ft | 437 kts | 74° |
| 2026-05-08 06:13 | 49.70790 | 9.89171 | 26353 ft | 440 kts | 74° |
| 2026-05-08 06:14 | 49.71806 | 9.93649 | 26754 ft | 443 kts | 65° |
| 2026-05-08 06:14 | 49.73248 | 9.97852 | 27168 ft | 444 kts | 56° |
| 2026-05-08 06:14 | 49.75032 | 10.01769 | 27581 ft | 446 kts | 53° |
| 2026-05-08 06:14 | 49.76851 | 10.05673 | 27987 ft | 449 kts | 53° |
| 2026-05-08 06:15 | 49.78674 | 10.09600 | 28390 ft | 452 kts | 53° |
| 2026-05-08 06:15 | 49.80513 | 10.13575 | 28788 ft | 454 kts | 53° |
| 2026-05-08 06:15 | 49.82348 | 10.17558 | 29168 ft | 457 kts | 53° |
| 2026-05-08 06:15 | 49.84198 | 10.21586 | 29554 ft | 459 kts | 53° |
| 2026-05-08 06:16 | 49.86052 | 10.25637 | 29916 ft | 462 kts | 53° |
| 2026-05-08 06:16 | 49.87914 | 10.29708 | 30252 ft | 464 kts | 53° |
| 2026-05-08 06:16 | 49.89785 | 10.33806 | 30549 ft | 467 kts | 53° |
| 2026-05-08 06:16 | 49.91667 | 10.37925 | 30837 ft | 469 kts | 53° |
| 2026-05-08 06:17 | 49.95437 | 10.46180 | 31124 ft | 460 kts | 53° |
| 2026-05-08 06:17 | 49.99076 | 10.54195 | 31120 ft | 450 kts | 53° |
| 2026-05-08 06:18 | 50.02661 | 10.62132 | 31120 ft | 449 kts | 54° |
| 2026-05-08 06:18 | 50.04196 | 10.66367 | 31123 ft | 450 kts | 65° |
| 2026-05-08 06:18 | 50.05208 | 10.70969 | 31122 ft | 451 kts | 76° |
| 2026-05-08 06:19 | 50.05657 | 10.75739 | 31122 ft | 452 kts | 87° |
| 2026-05-08 06:19 | 50.05550 | 10.80679 | 31120 ft | 451 kts | 98° |
| 2026-05-08 06:19 | 50.03912 | 10.90070 | 31114 ft | 450 kts | 109° |
| 2026-05-08 06:20 | 50.01948 | 10.99313 | 31108 ft | 450 kts | 109° |
| 2026-05-08 06:20 | 49.99971 | 11.08545 | 31104 ft | 450 kts | 109° |
| 2026-05-08 06:21 | 49.97993 | 11.17787 | 31098 ft | 450 kts | 109° |
| 2026-05-08 06:21 | 49.96021 | 11.27017 | 31096 ft | 451 kts | 109° |
| 2026-05-08 06:22 | 49.94054 | 11.36264 | 31087 ft | 451 kts | 109° |
| 2026-05-08 06:22 | 49.92151 | 11.45472 | 31089 ft | 451 kts | 107° |
| 2026-05-08 06:23 | 49.90448 | 11.54854 | 31086 ft | 452 kts | 106° |
| 2026-05-08 06:23 | 49.88791 | 11.64254 | 31082 ft | 452 kts | 106° |
| 2026-05-08 06:24 | 49.87778 | 11.72266 | 31079 ft | 453 kts | 98° |
| 2026-05-08 06:24 | 49.86929 | 11.81863 | 31078 ft | 453 kts | 98° |
| 2026-05-08 06:25 | 49.86055 | 11.91528 | 31076 ft | 453 kts | 98° |
| 2026-05-08 06:25 | 49.85181 | 12.01200 | 31079 ft | 453 kts | 98° |
| 2026-05-08 06:26 | 49.84315 | 12.10879 | 31079 ft | 453 kts | 98° |
| 2026-05-08 06:26 | 49.83439 | 12.20522 | 31082 ft | 453 kts | 98° |
| 2026-05-08 06:27 | 49.82552 | 12.30181 | 31079 ft | 453 kts | 98° |
| 2026-05-08 06:27 | 49.81660 | 12.39842 | 31084 ft | 453 kts | 98° |
| 2026-05-08 06:28 | 49.80435 | 12.49397 | 31083 ft | 452 kts | 108° |
| 2026-05-08 06:28 | 49.78573 | 12.58694 | 31082 ft | 452 kts | 108° |
| 2026-05-08 06:29 | 49.76709 | 12.67992 | 31078 ft | 452 kts | 108° |
| 2026-05-08 06:29 | 49.74843 | 12.77287 | 31079 ft | 453 kts | 108° |
| 2026-05-08 06:30 | 49.72966 | 12.86583 | 31082 ft | 453 kts | 108° |
| 2026-05-08 06:30 | 49.71081 | 12.95881 | 31086 ft | 454 kts | 108° |
| 2026-05-08 06:31 | 49.69183 | 13.05187 | 31091 ft | 454 kts | 108° |
| 2026-05-08 06:31 | 49.67270 | 13.14471 | 31096 ft | 454 kts | 108° |
| 2026-05-08 06:32 | 49.65365 | 13.23752 | 31095 ft | 454 kts | 108° |
| 2026-05-08 06:32 | 49.63457 | 13.32978 | 31095 ft | 454 kts | 109° |
| 2026-05-08 06:33 | 49.61528 | 13.42257 | 31095 ft | 454 kts | 109° |
| 2026-05-08 06:33 | 49.59601 | 13.51534 | 31090 ft | 454 kts | 109° |
| 2026-05-08 06:34 | 49.57660 | 13.60795 | 31088 ft | 455 kts | 109° |
| 2026-05-08 06:34 | 49.55696 | 13.70059 | 31085 ft | 455 kts | 109° |
| 2026-05-08 06:35 | 49.53736 | 13.79315 | 31089 ft | 455 kts | 109° |
| 2026-05-08 06:35 | 49.51776 | 13.88579 | 31083 ft | 455 kts | 109° |
| 2026-05-08 06:36 | 49.49802 | 13.97826 | 31087 ft | 455 kts | 109° |
| 2026-05-08 06:36 | 49.47816 | 14.07074 | 31085 ft | 455 kts | 109° |
| 2026-05-08 06:37 | 49.45826 | 14.16321 | 31088 ft | 456 kts | 109° |
| 2026-05-08 06:37 | 49.43833 | 14.25507 | 31087 ft | 456 kts | 109° |
| 2026-05-08 06:38 | 49.41825 | 14.34746 | 31089 ft | 456 kts | 109° |
| 2026-05-08 06:38 | 49.39802 | 14.44000 | 31091 ft | 457 kts | 109° |
| 2026-05-08 06:39 | 49.37775 | 14.53242 | 31087 ft | 457 kts | 109° |
| 2026-05-08 06:39 | 49.35739 | 14.62493 | 31087 ft | 458 kts | 110° |
| 2026-05-08 06:40 | 49.33689 | 14.71743 | 31083 ft | 458 kts | 110° |
| 2026-05-08 06:40 | 49.31634 | 14.81010 | 31086 ft | 459 kts | 110° |
| 2026-05-08 06:41 | 49.29573 | 14.90262 | 31095 ft | 459 kts | 110° |
| 2026-05-08 06:41 | 49.27496 | 14.99513 | 31092 ft | 459 kts | 110° |
| 2026-05-08 06:42 | 49.25404 | 15.08755 | 31080 ft | 459 kts | 110° |
| 2026-05-08 06:42 | 49.23312 | 15.17994 | 31075 ft | 459 kts | 110° |
| 2026-05-08 06:43 | 49.21230 | 15.27172 | 31079 ft | 459 kts | 110° |
| 2026-05-08 06:43 | 49.19126 | 15.36389 | 31076 ft | 459 kts | 110° |
| 2026-05-08 06:44 | 49.17010 | 15.45608 | 31070 ft | 460 kts | 110° |
| 2026-05-08 06:44 | 49.14887 | 15.54821 | 31078 ft | 460 kts | 111° |
| 2026-05-08 06:45 | 49.12756 | 15.64048 | 31075 ft | 461 kts | 111° |
| 2026-05-08 06:45 | 49.10618 | 15.73270 | 31068 ft | 461 kts | 111° |
| 2026-05-08 06:46 | 49.08467 | 15.82484 | 31068 ft | 461 kts | 111° |
| 2026-05-08 06:46 | 49.06307 | 15.91700 | 31071 ft | 461 kts | 111° |
| 2026-05-08 06:47 | 49.04138 | 16.00901 | 31062 ft | 462 kts | 111° |
| 2026-05-08 06:47 | 49.01961 | 16.10115 | 31065 ft | 462 kts | 111° |
| 2026-05-08 06:48 | 48.99773 | 16.19331 | 31070 ft | 462 kts | 111° |
| 2026-05-08 06:48 | 48.97581 | 16.28549 | 31070 ft | 463 kts | 111° |
| 2026-05-08 06:49 | 48.95381 | 16.37747 | 31064 ft | 463 kts | 112° |
| 2026-05-08 06:49 | 48.93165 | 16.46958 | 31064 ft | 463 kts | 112° |
| 2026-05-08 06:50 | 48.90939 | 16.56164 | 31069 ft | 464 kts | 112° |
| 2026-05-08 06:50 | 48.88728 | 16.65282 | 31070 ft | 464 kts | 112° |
| 2026-05-08 06:51 | 48.86498 | 16.74475 | 31061 ft | 464 kts | 112° |
| 2026-05-08 06:51 | 48.84252 | 16.83672 | 31056 ft | 464 kts | 112° |
| 2026-05-08 06:52 | 48.81993 | 16.92868 | 31053 ft | 465 kts | 112° |
| 2026-05-08 06:52 | 48.79724 | 17.02050 | 31051 ft | 465 kts | 112° |
| 2026-05-08 06:53 | 48.76855 | 17.10745 | 31046 ft | 459 kts | 128° |
| 2026-05-08 06:53 | 48.73018 | 17.18464 | 31044 ft | 458 kts | 130° |
| 2026-05-08 06:54 | 48.69162 | 17.26163 | 31044 ft | 458 kts | 130° |
| 2026-05-08 06:54 | 48.65307 | 17.33850 | 31046 ft | 458 kts | 131° |
| 2026-05-08 06:55 | 48.61439 | 17.41526 | 31049 ft | 459 kts | 131° |
| 2026-05-08 06:55 | 48.59277 | 17.45770 | 31046 ft | 457 kts | 134° |
| 2026-05-08 06:56 | 48.55271 | 17.53235 | 31047 ft | 458 kts | 130° |
| 2026-05-08 06:56 | 48.51501 | 17.60987 | 31047 ft | 459 kts | 130° |
| 2026-05-08 06:57 | 48.47732 | 17.68678 | 31046 ft | 459 kts | 131° |
| 2026-05-08 06:57 | 48.43830 | 17.76361 | 31043 ft | 459 kts | 131° |
| 2026-05-08 06:58 | 48.39918 | 17.83949 | 31041 ft | 459 kts | 131° |
| 2026-05-08 06:58 | 48.36039 | 17.91484 | 31014 ft | 460 kts | 131° |
| 2026-05-08 06:59 | 48.34080 | 17.95294 | 30760 ft | 460 kts | 131° |
| 2026-05-08 06:59 | 48.32118 | 17.99103 | 30510 ft | 461 kts | 132° |
| 2026-05-08 06:59 | 48.30161 | 18.02897 | 30109 ft | 459 kts | 131° |
| 2026-05-08 06:59 | 48.28188 | 18.06647 | 29418 ft | 456 kts | 133° |
| 2026-05-08 07:00 | 48.26155 | 18.10248 | 28890 ft | 449 kts | 135° |
| 2026-05-08 07:00 | 48.24080 | 18.13709 | 28330 ft | 443 kts | 136° |
| 2026-05-08 07:00 | 48.21993 | 18.17080 | 27776 ft | 438 kts | 137° |
| 2026-05-08 07:00 | 48.19921 | 18.20398 | 27230 ft | 434 kts | 137° |
| 2026-05-08 07:01 | 48.17875 | 18.23697 | 26692 ft | 430 kts | 136° |
| 2026-05-08 07:01 | 48.15858 | 18.26987 | 26167 ft | 427 kts | 136° |
| 2026-05-08 07:01 | 48.13876 | 18.30263 | 25648 ft | 423 kts | 135° |
| 2026-05-08 07:01 | 48.11911 | 18.33535 | 25149 ft | 420 kts | 135° |
| 2026-05-08 07:02 | 48.09968 | 18.36777 | 24653 ft | 417 kts | 135° |
| 2026-05-08 07:02 | 48.08036 | 18.39993 | 24176 ft | 414 kts | 134° |
| 2026-05-08 07:02 | 48.06120 | 18.43170 | 23711 ft | 411 kts | 134° |
| 2026-05-08 07:02 | 48.04200 | 18.46336 | 23198 ft | 408 kts | 134° |
| 2026-05-08 07:03 | 48.02301 | 18.49454 | 22753 ft | 404 kts | 134° |
| 2026-05-08 07:03 | 48.00415 | 18.52544 | 22312 ft | 400 kts | 134° |
| 2026-05-08 07:03 | 47.98549 | 18.55602 | 21860 ft | 397 kts | 134° |
| 2026-05-08 07:03 | 47.96699 | 18.58640 | 21416 ft | 393 kts | 134° |
| 2026-05-08 07:04 | 47.94872 | 18.61664 | 20957 ft | 391 kts | 134° |
| 2026-05-08 07:04 | 47.93067 | 18.64669 | 20508 ft | 388 kts | 134° |
| 2026-05-08 07:04 | 47.91277 | 18.67653 | 20038 ft | 385 kts | 134° |
| 2026-05-08 07:04 | 47.89493 | 18.70611 | 19570 ft | 383 kts | 134° |
| 2026-05-08 07:05 | 47.87710 | 18.73555 | 19104 ft | 382 kts | 134° |
| 2026-05-08 07:05 | 47.85931 | 18.76488 | 18628 ft | 380 kts | 134° |
| 2026-05-08 07:05 | 47.84157 | 18.79408 | 18121 ft | 380 kts | 134° |
| 2026-05-08 07:05 | 47.82390 | 18.82314 | 17639 ft | 377 kts | 134° |
| 2026-05-08 07:06 | 47.80638 | 18.85193 | 17171 ft | 374 kts | 134° |
| 2026-05-08 07:06 | 47.78899 | 18.88058 | 16703 ft | 372 kts | 134° |
| 2026-05-08 07:06 | 47.77170 | 18.90910 | 16249 ft | 370 kts | 134° |
| 2026-05-08 07:06 | 47.75450 | 18.93737 | 15802 ft | 368 kts | 134° |
| 2026-05-08 07:07 | 47.73757 | 18.96510 | 15352 ft | 366 kts | 134° |
| 2026-05-08 07:07 | 47.72047 | 18.99308 | 14908 ft | 364 kts | 134° |
| 2026-05-08 07:07 | 47.70346 | 19.02089 | 14460 ft | 363 kts | 134° |
| 2026-05-08 07:07 | 47.68657 | 19.04855 | 14008 ft | 361 kts | 133° |
| 2026-05-08 07:08 | 47.67520 | 19.06718 | 13686 ft | 360 kts | 133° |
| 2026-05-08 07:08 | 47.65607 | 19.09849 | 13142 ft | 357 kts | 133° |
| 2026-05-08 07:08 | 47.63942 | 19.12562 | 12693 ft | 354 kts | 133° |
| 2026-05-08 07:08 | 47.62292 | 19.15240 | 12235 ft | 351 kts | 133° |
| 2026-05-08 07:09 | 47.61200 | 19.17009 | 11931 ft | 349 kts | 133° |
| 2026-05-08 07:09 | 47.59571 | 19.19650 | 11473 ft | 346 kts | 133° |
| 2026-05-08 07:09 | 47.57951 | 19.22275 | 11008 ft | 343 kts | 133° |
| 2026-05-08 07:09 | 47.56347 | 19.24873 | 10553 ft | 341 kts | 133° |
| 2026-05-08 07:10 | 47.54770 | 19.27428 | 10359 ft | 330 kts | 133° |
| 2026-05-08 07:10 | 47.52770 | 19.30668 | 10199 ft | 314 kts | 133° |
| 2026-05-08 07:10 | 47.51325 | 19.33012 | 10031 ft | 304 kts | 133° |
| 2026-05-08 07:10 | 47.49910 | 19.35307 | 9645 ft | 302 kts | 133° |
| 2026-05-08 07:11 | 47.48973 | 19.36824 | 9427 ft | 299 kts | 133° |
| 2026-05-08 07:11 | 47.47566 | 19.39093 | 8986 ft | 299 kts | 133° |
| 2026-05-08 07:11 | 47.46171 | 19.41337 | 8649 ft | 295 kts | 133° |
| 2026-05-08 07:11 | 47.44783 | 19.43562 | 8234 ft | 294 kts | 133° |
| 2026-05-08 07:12 | 47.43407 | 19.45773 | 7838 ft | 291 kts | 133° |
| 2026-05-08 07:12 | 47.42040 | 19.47971 | 7461 ft | 289 kts | 133° |
| 2026-05-08 07:12 | 47.40685 | 19.50146 | 6949 ft | 286 kts | 133° |
| 2026-05-08 07:12 | 47.39346 | 19.52293 | 6405 ft | 281 kts | 133° |
| 2026-05-08 07:13 | 47.38070 | 19.54335 | 6253 ft | 260 kts | 133° |
| 2026-05-08 07:13 | 47.36881 | 19.56243 | 6049 ft | 248 kts | 133° |
| 2026-05-08 07:13 | 47.35722 | 19.58105 | 5763 ft | 244 kts | 133° |
| 2026-05-08 07:13 | 47.34578 | 19.59916 | 5586 ft | 237 kts | 137° |
| 2026-05-08 07:14 | 47.33175 | 19.61033 | 5350 ft | 229 kts | 170° |
| 2026-05-08 07:14 | 47.31626 | 19.60850 | 5053 ft | 223 kts | 204° |
| 2026-05-08 07:14 | 47.30370 | 19.59556 | 4753 ft | 221 kts | 224° |
| 2026-05-08 07:14 | 47.29333 | 19.57967 | 4607 ft | 212 kts | 235° |
| 2026-05-08 07:15 | 47.28677 | 19.56073 | 4441 ft | 205 kts | 253° |
| 2026-05-08 07:15 | 47.28468 | 19.54023 | 4184 ft | 203 kts | 271° |
| 2026-05-08 07:15 | 47.28708 | 19.52022 | 4020 ft | 202 kts | 289° |
| 2026-05-08 07:15 | 47.29362 | 19.50213 | 3992 ft | 199 kts | 307° |
| 2026-05-08 07:16 | 47.30284 | 19.48679 | 3866 ft | 200 kts | 312° |
| 2026-05-08 07:16 | 47.31225 | 19.47180 | 3642 ft | 198 kts | 312° |
| 2026-05-08 07:16 | 47.32148 | 19.45703 | 3394 ft | 194 kts | 312° |
| 2026-05-08 07:16 | 47.33046 | 19.44264 | 3134 ft | 189 kts | 312° |
| 2026-05-08 07:17 | 47.33919 | 19.42863 | 2880 ft | 181 kts | 312° |
| 2026-05-08 07:17 | 47.34752 | 19.41526 | 2652 ft | 173 kts | 312° |
| 2026-05-08 07:17 | 47.35549 | 19.40245 | 2427 ft | 167 kts | 312° |
| 2026-05-08 07:17 | 47.36330 | 19.38990 | 2193 ft | 165 kts | 312° |
| 2026-05-08 07:18 | 47.37104 | 19.37747 | 1980 ft | 164 kts | 312° |
| 2026-05-08 07:18 | 47.37870 | 19.36514 | 1762 ft | 160 kts | 312° |
| 2026-05-08 07:18 | 47.38603 | 19.35334 | 1547 ft | 152 kts | 312° |
| 2026-05-08 07:18 | 47.39302 | 19.34209 | 1346 ft | 146 kts | 312° |
| 2026-05-08 07:19 | 47.39974 | 19.33114 | 1131 ft | 145 kts | 311° |
| 2026-05-08 07:19 | 47.40648 | 19.32019 | 926 ft | 144 kts | 313° |
| 2026-05-08 07:19 | 47.41326 | 19.30940 | 704 ft | 142 kts | 312° |
| 2026-05-08 07:19 | 47.41994 | 19.29865 | 562 ft | 142 kts | 313° |
| 2026-05-08 07:20 | 47.42660 | 19.28797 | 452 ft | 135 kts | 314° |
| 2026-05-08 07:20 | 47.43219 | 19.27898 | 458 ft | 97 kts | 312° |
| 2026-05-08 07:20 | 47.43562 | 19.27344 | 470 ft | 55 kts | 312° |
| 2026-05-08 07:20 | 47.43721 | 19.27021 | 470 ft | 33 kts | 292° |
| 2026-05-08 07:21 | 47.43753 | 19.26859 | 467 ft | 21 kts | 282° |
| 2026-05-08 07:21 | 47.43778 | 19.26698 | 460 ft | 17 kts | 281° |
| 2026-05-08 07:21 | 47.43803 | 19.26524 | 459 ft | 16 kts | 277° |
| 2026-05-08 07:21 | 47.43736 | 19.26398 | 458 ft | 17 kts | 222° |
| 2026-05-08 07:22 | 47.43649 | 19.26279 | 457 ft | 18 kts | 222° |
| 2026-05-08 07:22 | 47.43558 | 19.26157 | 455 ft | 16 kts | 222° |
| 2026-05-08 07:22 | 47.43498 | 19.26076 | 457 ft | 10 kts | 222° |
| 2026-05-08 07:22 | 47.43458 | 19.26056 | 457 ft | 5 kts | 142° |
| 2026-05-08 07:23 | 47.43432 | 19.26101 | 457 ft | 6 kts | 132° |
| 2026-05-08 07:23 | 47.43414 | 19.26131 | 457 ft | 2 kts | 132° |
| 2026-05-08 07:23 | 47.43411 | 19.26135 | 457 ft | 0 kts | 132° |